Time,TemperatureF,DewpointF,PressureIn,WindDirection,WindDirectionDegrees,WindSpeedMPH,WindSpeedGustMPH,Humidity,HourlyPrecipIn,Conditions,Clouds,dailyrainin,SolarRadiationWatts/m^2,SoftwareType,DateUTC
2013-07-07 00:00:00,60.0,51.7,29.80,West,266,1.0,1.0,74,0.00,,,0.00,0,Wunderground v.1.15,2013-07-07 07:00:00,
2013-07-07 00:10:00,59.9,51.6,29.80,West,261,0.0,0.0,74,0.00,,,0.00,0,Wunderground v.1.15,2013-07-07 07:10:00,
2013-07-07 00:20:00,59.7,51.4,29.80,WSW,257,0.0,0.0,74,0.00,,,0.00,0,Wunderground v.1.15,2013-07-07 07:20:00,
2013-07-07 00:30:00,59.5,51.6,29.80,WSW,253,0.0,0.0,75,0.00,,,0.00,0,Wunderground v.1.15,2013-07-07 07:30:00,
2013-07-07 00:40:00,59.2,51.3,29.80,WSW,250,0.0,0.0,75,0.00,,,0.00,0,Wunderground v.1.15,2013-07-07 07:40:00,
2013-07-07 00:50:00,59.0,51.4,29.81,WSW,251,0.0,0.0,76,0.00,,,0.00,0,Wunderground v.1.15,2013-07-07 07:50:00,
2013-07-07 01:00:00,58.9,51.7,29.80,WSW,237,0.0,2.0,77,0.00,,,0.00,0,Wunderground v.1.15,2013-07-07 08:00:00,
2013-07-07 01:10:00,58.5,51.7,29.80,SW,234,0.0,0.0,78,0.00,,,0.00,0,Wunderground v.1.15,2013-07-07 08:10:00,
2013-07-07 01:20:00,58.3,51.5,29.80,SW,235,0.0,1.0,78,0.00,,,0.00,0,Wunderground v.1.15,2013-07-07 08:20:00,
2013-07-07 01:30:00,58.1,51.3,29.80,West,267,1.0,2.0,78,0.00,,,0.00,0,Wunderground v.1.15,2013-07-07 08:30:00,
2013-07-07 01:40:00,58.0,51.5,29.80,WSW,240,0.0,1.0,79,0.00,,,0.00,0,Wunderground v.1.15,2013-07-07 08:40:00,
2013-07-07 01:50:00,57.7,51.2,29.80,WSW,241,1.0,1.0,79,0.00,,,0.00,0,Wunderground v.1.15,2013-07-07 08:50:00,
2013-07-07 02:00:00,57.7,51.6,29.80,West,275,0.0,0.0,80,0.00,,,0.00,0,Wunderground v.1.15,2013-07-07 09:00:00,
2013-07-07 02:10:00,57.5,51.4,29.80,West,267,0.0,0.0,80,0.00,,,0.00,0,Wunderground v.1.15,2013-07-07 09:10:00,
2013-07-07 02:20:00,57.4,51.6,29.80,West,267,0.0,0.0,81,0.00,,,0.00,0,Wunderground v.1.15,2013-07-07 09:20:00,
2013-07-07 02:30:00,57.4,51.6,29.80,West,260,0.0,0.0,81,0.00,,,0.00,0,Wunderground v.1.15,2013-07-07 09:30:00,
2013-07-07 02:40:00,57.3,51.5,29.80,West,259,0.0,0.0,81,0.00,,,0.00,0,Wunderground v.1.15,2013-07-07 09:40:00,
2013-07-07 02:50:00,57.1,51.3,29.80,WSW,258,1.0,1.0,81,0.00,,,0.00,0,Wunderground v.1.15,2013-07-07 09:50:00,
2013-07-07 03:00:00,57.0,51.6,29.80,West,263,0.0,0.0,82,0.00,,,0.00,0,Wunderground v.1.15,2013-07-07 10:00:00,
2013-07-07 03:10:00,57.0,51.6,29.80,WSW,243,0.0,0.0,82,0.00,,,0.00,0,Wunderground v.1.15,2013-07-07 10:10:00,
2013-07-07 03:20:00,56.8,51.4,29.80,WSW,243,0.0,0.0,82,0.00,,,0.00,0,Wunderground v.1.15,2013-07-07 10:20:00,
2013-07-07 03:30:00,56.7,51.6,29.81,SW,232,1.0,1.0,83,0.00,,,0.00,0,Wunderground v.1.15,2013-07-07 10:30:00,
2013-07-07 03:40:00,56.6,51.5,29.81,West,277,0.0,0.0,83,0.00,,,0.00,0,Wunderground v.1.15,2013-07-07 10:40:00,
2013-07-07 03:50:00,56.5,51.4,29.81,SW,236,0.0,0.0,83,0.00,,,0.00,0,Wunderground v.1.15,2013-07-07 10:50:00,
2013-07-07 04:00:00,56.5,51.4,29.81,SW,236,0.0,0.0,83,0.00,,,0.00,0,Wunderground v.1.15,2013-07-07 11:00:00,
2013-07-07 04:10:00,56.4,51.3,29.81,SW,236,0.0,0.0,83,0.00,,,0.00,0,Wunderground v.1.15,2013-07-07 11:10:00,
2013-07-07 04:20:00,56.3,51.5,29.81,SW,236,0.0,0.0,84,0.00,,,0.00,0,Wunderground v.1.15,2013-07-07 11:20:00,
2013-07-07 04:30:00,56.2,51.4,29.81,SW,236,0.0,0.0,84,0.00,,,0.00,0,Wunderground v.1.15,2013-07-07 11:30:00,
2013-07-07 04:40:00,56.0,51.2,29.81,SW,236,0.0,0.0,84,0.00,,,0.00,0,Wunderground v.1.15,2013-07-07 11:40:00,
2013-07-07 04:50:00,56.1,51.7,29.81,WSW,237,0.0,0.0,85,0.00,,,0.00,0,Wunderground v.1.15,2013-07-07 11:50:00,
2013-07-07 05:00:00,56.0,51.6,29.81,WSW,238,0.0,0.0,85,0.00,,,0.00,0,Wunderground v.1.15,2013-07-07 12:00:00,
2013-07-07 05:10:00,56.0,51.6,29.82,WSW,238,0.0,0.0,85,0.00,,,0.00,0,Wunderground v.1.15,2013-07-07 12:10:00,
2013-07-07 05:20:00,55.9,51.5,29.82,WSW,238,0.0,0.0,85,0.00,,,0.00,0,Wunderground v.1.15,2013-07-07 12:20:00,
2013-07-07 05:30:00,55.8,51.4,29.82,WSW,238,0.0,0.0,85,0.00,,,0.00,0,Wunderground v.1.15,2013-07-07 12:30:00,
2013-07-07 05:40:00,55.7,51.3,29.82,WSW,238,0.0,0.0,85,0.00,,,0.00,0,Wunderground v.1.15,2013-07-07 12:40:00,
2013-07-07 05:50:00,55.6,51.2,29.82,WSW,238,0.0,0.0,85,0.00,,,0.00,0,Wunderground v.1.15,2013-07-07 12:50:00,
2013-07-07 06:00:00,55.6,51.2,29.83,WSW,238,0.0,0.0,85,0.00,,,0.00,0,Wunderground v.1.15,2013-07-07 13:00:00,
2013-07-07 06:10:00,55.6,51.5,29.83,WSW,238,0.0,0.0,86,0.00,,,0.00,9,Wunderground v.1.15,2013-07-07 13:10:00,
2013-07-07 06:20:00,55.5,51.4,29.83,WSW,238,0.0,0.0,86,0.00,,,0.00,19,Wunderground v.1.15,2013-07-07 13:20:00,
2013-07-07 06:30:00,55.5,51.4,29.83,WSW,238,0.0,0.0,86,0.00,,,0.00,26,Wunderground v.1.15,2013-07-07 13:30:00,
2013-07-07 06:40:00,55.7,51.6,29.83,WSW,237,0.0,0.0,86,0.00,,,0.00,39,Wunderground v.1.15,2013-07-07 13:40:00,
2013-07-07 06:50:00,55.8,51.7,29.84,WSW,237,0.0,0.0,86,0.00,,,0.00,40,Wunderground v.1.15,2013-07-07 13:50:00,
2013-07-07 07:00:00,56.3,52.5,29.84,WSW,238,0.0,0.0,87,0.00,,,0.00,130,Wunderground v.1.15,2013-07-07 14:00:00,
2013-07-07 07:10:00,57.2,53.0,29.84,WNW,290,0.0,0.0,86,0.00,,,0.00,160,Wunderground v.1.15,2013-07-07 14:10:00,
2013-07-07 07:20:00,57.8,53.6,29.84,WNW,297,0.0,0.0,86,0.00,,,0.00,199,Wunderground v.1.15,2013-07-07 14:20:00,
2013-07-07 07:30:00,58.9,54.4,29.84,West,264,0.0,0.0,85,0.00,,,0.00,123,Wunderground v.1.15,2013-07-07 14:30:00,
2013-07-07 07:40:00,59.9,54.7,29.85,ENE,71,0.0,2.0,83,0.00,,,0.00,279,Wunderground v.1.15,2013-07-07 14:40:00,
2013-07-07 07:50:00,61.1,54.9,29.85,ENE,69,0.0,0.0,80,0.00,,,0.00,318,Wunderground v.1.15,2013-07-07 14:50:00,
2013-07-07 08:00:00,62.3,55.0,29.85,NNE,15,0.0,0.0,77,0.00,,,0.00,353,Wunderground v.1.15,2013-07-07 15:00:00,
2013-07-07 08:10:00,63.0,54.6,29.85,East,101,0.0,0.0,74,0.00,,,0.00,388,Wunderground v.1.15,2013-07-07 15:10:00,
2013-07-07 08:20:00,64.0,55.2,29.85,NW,308,0.0,1.0,73,0.00,,,0.00,420,Wunderground v.1.15,2013-07-07 15:20:00,
2013-07-07 08:30:00,64.7,55.5,29.85,NNW,327,0.0,1.0,72,0.00,,,0.00,455,Wunderground v.1.15,2013-07-07 15:30:00,
2013-07-07 08:40:00,65.8,56.1,29.85,NW,309,1.0,1.0,71,0.00,,,0.00,483,Wunderground v.1.15,2013-07-07 15:40:00,
2013-07-07 08:50:00,66.9,56.0,29.85,SW,233,1.0,3.0,68,0.00,,,0.00,517,Wunderground v.1.15,2013-07-07 15:50:00,
2013-07-07 09:00:00,68.0,56.2,29.86,NW,326,0.0,0.0,66,0.00,,,0.00,550,Wunderground v.1.15,2013-07-07 16:00:00,
2013-07-07 09:10:00,68.6,55.9,29.86,SSW,200,1.0,1.0,64,0.00,,,0.00,584,Wunderground v.1.15,2013-07-07 16:10:00,
2013-07-07 09:20:00,69.9,56.7,29.86,SSE,150,0.0,0.0,63,0.00,,,0.00,207,Wunderground v.1.15,2013-07-07 16:20:00,
2013-07-07 09:30:00,70.3,56.7,29.86,SSE,163,1.0,1.0,62,0.00,,,0.00,643,Wunderground v.1.15,2013-07-07 16:30:00,
2013-07-07 09:40:00,71.2,56.6,29.85,ESE,107,0.0,0.0,60,0.00,,,0.00,675,Wunderground v.1.15,2013-07-07 16:40:00,
2013-07-07 09:50:00,72.0,56.9,29.85,ESE,115,0.0,0.0,59,0.00,,,0.00,705,Wunderground v.1.15,2013-07-07 16:50:00,
2013-07-07 10:00:00,73.1,57.0,29.85,NNE,28,0.0,0.0,57,0.00,,,0.00,735,Wunderground v.1.15,2013-07-07 17:00:00,
2013-07-07 10:10:00,74.3,57.1,29.84,NNW,348,1.0,1.0,55,0.00,,,0.00,759,Wunderground v.1.15,2013-07-07 17:10:00,
2013-07-07 10:20:00,74.9,57.1,29.85,North,355,1.0,2.0,54,0.00,,,0.00,780,Wunderground v.1.15,2013-07-07 17:20:00,
2013-07-07 10:30:00,75.7,56.8,29.85,NW,313,1.0,1.0,52,0.00,,,0.00,807,Wunderground v.1.15,2013-07-07 17:30:00,
2013-07-07 10:40:00,76.4,56.4,29.85,NW,314,0.0,1.0,50,0.00,,,0.00,826,Wunderground v.1.15,2013-07-07 17:40:00,
2013-07-07 10:50:00,77.1,57.0,29.85,NE,48,1.0,1.0,50,0.00,,,0.00,849,Wunderground v.1.15,2013-07-07 17:50:00,
2013-07-07 11:00:00,78.0,56.7,29.85,North,360,1.0,1.0,48,0.00,,,0.00,870,Wunderground v.1.15,2013-07-07 18:00:00,
2013-07-07 11:10:00,77.2,57.1,29.84,NE,49,1.0,1.0,50,0.00,,,0.00,889,Wunderground v.1.15,2013-07-07 18:10:00,
2013-07-07 11:20:00,77.8,56.0,29.85,NW,319,2.0,2.0,47,0.00,,,0.00,902,Wunderground v.1.15,2013-07-07 18:20:00,
2013-07-07 11:30:00,79.6,57.0,29.84,NNE,23,2.0,2.0,46,0.00,,,0.00,923,Wunderground v.1.15,2013-07-07 18:30:00,
2013-07-07 11:40:00,80.5,56.6,29.84,SSW,211,1.0,1.0,44,0.00,,,0.00,935,Wunderground v.1.15,2013-07-07 18:40:00,
2013-07-07 11:50:00,80.3,58.2,29.84,WNW,296,1.0,1.0,47,0.00,,,0.00,953,Wunderground v.1.15,2013-07-07 18:50:00,
2013-07-07 12:00:00,81.0,57.0,29.84,WNW,296,3.0,5.0,44,0.00,,,0.00,965,Wunderground v.1.15,2013-07-07 19:00:00,
2013-07-07 12:10:00,81.3,56.7,29.84,NNW,339,2.0,3.0,43,0.00,,,0.00,977,Wunderground v.1.15,2013-07-07 19:10:00,
2013-07-07 12:20:00,81.4,54.8,29.84,WNW,282,3.0,3.0,40,0.00,,,0.00,979,Wunderground v.1.15,2013-07-07 19:20:00,
2013-07-07 12:30:00,83.3,55.8,29.84,NW,309,1.0,1.0,39,0.00,,,0.00,986,Wunderground v.1.15,2013-07-07 19:30:00,
2013-07-07 12:40:00,83.7,56.1,29.83,West,261,0.0,3.0,39,0.00,,,0.00,991,Wunderground v.1.15,2013-07-07 19:40:00,
2013-07-07 12:50:00,83.1,55.6,29.83,WNW,293,2.0,2.0,39,0.00,,,0.00,993,Wunderground v.1.15,2013-07-07 19:50:00,
2013-07-07 13:00:00,85.2,56.0,29.83,NW,320,2.0,4.0,37,0.00,,,0.00,995,Wunderground v.1.15,2013-07-07 20:00:00,
2013-07-07 13:10:00,85.9,55.1,29.82,WSW,253,2.0,2.0,35,0.00,,,0.00,998,Wunderground v.1.15,2013-07-07 20:10:00,
2013-07-07 13:20:00,86.2,54.5,29.82,WNW,288,2.0,2.0,34,0.00,,,0.00,1004,Wunderground v.1.15,2013-07-07 20:20:00,
2013-07-07 13:30:00,87.9,55.2,29.82,NW,314,1.0,1.0,33,0.00,,,0.00,1004,Wunderground v.1.15,2013-07-07 20:30:00,
2013-07-07 13:40:00,87.1,53.7,29.82,WNW,302,1.0,4.0,32,0.00,,,0.00,998,Wunderground v.1.15,2013-07-07 20:40:00,
2013-07-07 13:50:00,88.2,53.7,29.82,West,261,3.0,5.0,31,0.00,,,0.00,991,Wunderground v.1.15,2013-07-07 20:50:00,
2013-07-07 14:00:00,87.8,53.4,29.81,NNW,336,1.0,1.0,31,0.00,,,0.00,988,Wunderground v.1.15,2013-07-07 21:00:00,
2013-07-07 14:10:00,89.3,54.7,29.81,NW,313,2.0,2.0,31,0.00,,,0.00,979,Wunderground v.1.15,2013-07-07 21:10:00,
2013-07-07 14:20:00,90.1,53.6,29.81,WNW,285,1.0,1.0,29,0.00,,,0.00,972,Wunderground v.1.15,2013-07-07 21:20:00,
2013-07-07 14:30:00,89.3,53.8,29.80,West,277,1.0,1.0,30,0.00,,,0.00,967,Wunderground v.1.15,2013-07-07 21:30:00,
2013-07-07 14:40:00,89.8,53.3,29.80,West,279,0.0,0.0,29,0.00,,,0.00,951,Wunderground v.1.15,2013-07-07 21:40:00,
2013-07-07 14:50:00,90.0,54.4,29.80,West,281,1.0,1.0,30,0.00,,,0.00,933,Wunderground v.1.15,2013-07-07 21:50:00,
2013-07-07 15:00:00,90.4,52.9,29.80,West,281,1.0,1.0,28,0.00,,,0.00,921,Wunderground v.1.15,2013-07-07 22:00:00,
2013-07-07 15:10:00,90.8,53.2,29.80,NNW,328,1.0,3.0,28,0.00,,,0.00,907,Wunderground v.1.15,2013-07-07 22:10:00,
2013-07-07 15:20:00,91.9,53.1,29.79,North,5,1.0,1.0,27,0.00,,,0.00,541,Wunderground v.1.15,2013-07-07 22:20:00,
2013-07-07 15:30:00,91.6,52.9,29.79,NNW,347,0.0,0.0,27,0.00,,,0.00,884,Wunderground v.1.15,2013-07-07 22:30:00,
2013-07-07 15:40:00,91.3,53.6,29.79,WSW,246,1.0,1.0,28,0.00,,,0.00,861,Wunderground v.1.15,2013-07-07 22:40:00,
2013-07-07 15:50:00,89.9,54.3,29.79,NW,325,0.0,0.0,30,0.00,,,0.00,838,Wunderground v.1.15,2013-07-07 22:50:00,
2013-07-07 16:00:00,89.2,56.3,29.79,North,5,0.0,0.0,33,0.00,,,0.00,810,Wunderground v.1.15,2013-07-07 23:00:00,
2013-07-07 16:10:00,89.2,56.3,29.79,WSW,250,1.0,1.0,33,0.00,,,0.00,789,Wunderground v.1.15,2013-07-07 23:10:00,
2013-07-07 16:20:00,89.1,55.4,29.79,West,264,1.0,1.0,32,0.00,,,0.00,758,Wunderground v.1.15,2013-07-07 23:20:00,
2013-07-07 16:30:00,88.6,55.0,29.78,South,175,0.0,0.0,32,0.00,,,0.00,729,Wunderground v.1.15,2013-07-07 23:30:00,
2013-07-07 16:40:00,88.5,54.9,29.79,WSW,243,0.0,0.0,32,0.00,,,0.00,399,Wunderground v.1.15,2013-07-07 23:40:00,
2013-07-07 16:50:00,88.4,53.0,29.78,WSW,254,0.0,0.0,30,0.00,,,0.00,673,Wunderground v.1.15,2013-07-07 23:50:00,
2013-07-07 17:00:00,87.7,54.2,29.78,WSW,249,0.0,1.0,32,0.00,,,0.00,642,Wunderground v.1.15,2013-07-08 00:00:00,
2013-07-07 17:10:00,87.1,55.3,29.78,WSW,257,1.0,1.0,34,0.00,,,0.00,613,Wunderground v.1.15,2013-07-08 00:10:00,
2013-07-07 17:20:00,85.9,55.8,29.78,WSW,257,0.0,0.0,36,0.00,,,0.00,582,Wunderground v.1.15,2013-07-08 00:20:00,
2013-07-07 17:30:00,86.3,56.2,29.78,West,280,0.0,0.0,36,0.00,,,0.00,105,Wunderground v.1.15,2013-07-08 00:30:00,
2013-07-07 17:40:00,86.5,55.6,29.78,West,273,0.0,0.0,35,0.00,,,0.00,32,Wunderground v.1.15,2013-07-08 00:40:00,
2013-07-07 17:50:00,86.1,56.0,29.78,WNW,284,0.0,0.0,36,0.00,,,0.00,28,Wunderground v.1.15,2013-07-08 00:50:00,
2013-07-07 18:00:00,85.3,55.3,29.78,West,277,0.0,0.0,36,0.00,,,0.00,28,Wunderground v.1.15,2013-07-08 01:00:00,
2013-07-07 18:10:00,84.7,55.5,29.78,WSW,256,0.0,0.0,37,0.00,,,0.00,26,Wunderground v.1.15,2013-07-08 01:10:00,
2013-07-07 18:20:00,84.0,55.7,29.78,WNW,294,0.0,0.0,38,0.00,,,0.00,26,Wunderground v.1.15,2013-07-08 01:20:00,
2013-07-07 18:30:00,83.5,55.9,29.78,North,9,0.0,1.0,39,0.00,,,0.00,25,Wunderground v.1.15,2013-07-08 01:30:00,
2013-07-07 18:40:00,82.8,55.3,29.78,NW,313,0.0,2.0,39,0.00,,,0.00,23,Wunderground v.1.15,2013-07-08 01:40:00,
2013-07-07 18:50:00,82.3,54.9,29.78,WNW,302,0.0,0.0,39,0.00,,,0.00,21,Wunderground v.1.15,2013-07-08 01:50:00,
2013-07-07 19:00:00,81.6,54.9,29.78,NNW,333,0.0,0.0,40,0.00,,,0.00,21,Wunderground v.1.15,2013-07-08 02:00:00,
2013-07-07 19:10:00,81.1,55.2,29.79,North,5,0.0,0.0,41,0.00,,,0.00,19,Wunderground v.1.15,2013-07-08 02:10:00,
2013-07-07 19:20:00,80.2,54.4,29.79,West,272,0.0,0.0,41,0.00,,,0.00,18,Wunderground v.1.15,2013-07-08 02:20:00,
2013-07-07 19:30:00,79.0,53.9,29.79,WNW,292,0.0,0.0,42,0.00,,,0.00,18,Wunderground v.1.15,2013-07-08 02:30:00,
2013-07-07 19:40:00,78.0,53.7,29.80,West,275,0.0,0.0,43,0.00,,,0.00,16,Wunderground v.1.15,2013-07-08 02:40:00,
2013-07-07 19:50:00,76.9,53.3,29.80,NNW,327,0.0,0.0,44,0.00,,,0.00,14,Wunderground v.1.15,2013-07-08 02:50:00,
2013-07-07 20:00:00,75.7,53.4,29.81,WSW,244,0.0,0.0,46,0.00,,,0.00,12,Wunderground v.1.15,2013-07-08 03:00:00,
2013-07-07 20:10:00,74.3,52.2,29.81,WNW,284,0.0,0.0,46,0.00,,,0.00,12,Wunderground v.1.15,2013-07-08 03:10:00,
2013-07-07 20:20:00,73.0,51.6,29.81,West,265,0.0,0.0,47,0.00,,,0.00,7,Wunderground v.1.15,2013-07-08 03:20:00,
2013-07-07 20:30:00,71.3,51.1,29.82,West,281,1.0,1.0,49,0.00,,,0.00,0,Wunderground v.1.15,2013-07-08 03:30:00,
2013-07-07 20:40:00,69.8,51.4,29.82,SW,219,0.0,0.0,52,0.00,,,0.00,0,Wunderground v.1.15,2013-07-08 03:40:00,
2013-07-07 20:50:00,68.6,51.8,29.83,WNW,295,1.0,1.0,55,0.00,,,0.00,0,Wunderground v.1.15,2013-07-08 03:50:00,
2013-07-07 21:00:00,67.6,51.8,29.83,NW,305,1.0,2.0,57,0.00,,,0.00,0,Wunderground v.1.15,2013-07-08 04:00:00,
2013-07-07 21:10:00,66.7,51.5,29.83,WNW,299,0.0,0.0,58,0.00,,,0.00,0,Wunderground v.1.15,2013-07-08 04:10:00,
2013-07-07 21:20:00,66.1,51.8,29.84,WNW,298,0.0,0.0,60,0.00,,,0.00,0,Wunderground v.1.15,2013-07-08 04:20:00,
2013-07-07 21:30:00,65.5,51.7,29.84,WNW,295,0.0,0.0,61,0.00,,,0.00,0,Wunderground v.1.15,2013-07-08 04:30:00,
2013-07-07 21:40:00,65.0,51.7,29.85,WNW,295,0.0,0.0,62,0.00,,,0.00,0,Wunderground v.1.15,2013-07-08 04:40:00,
2013-07-07 21:50:00,64.6,51.3,29.85,WNW,295,0.0,0.0,62,0.00,,,0.00,0,Wunderground v.1.15,2013-07-08 04:50:00,
2013-07-07 22:00:00,64.1,51.2,29.85,WNW,295,0.0,0.0,63,0.00,,,0.00,0,Wunderground v.1.15,2013-07-08 05:00:00,
2013-07-07 22:10:00,63.7,51.3,29.86,WNW,295,0.0,0.0,64,0.00,,,0.00,0,Wunderground v.1.15,2013-07-08 05:10:00,
2013-07-07 22:20:00,63.4,51.4,29.86,WNW,294,0.0,0.0,65,0.00,,,0.00,0,Wunderground v.1.15,2013-07-08 05:20:00,
2013-07-07 22:30:00,62.9,51.4,29.86,WNW,294,0.0,0.0,66,0.00,,,0.00,0,Wunderground v.1.15,2013-07-08 05:30:00,
2013-07-07 22:40:00,62.5,51.4,29.86,WNW,294,0.0,0.0,67,0.00,,,0.00,0,Wunderground v.1.15,2013-07-08 05:40:00,
2013-07-07 22:50:00,62.0,51.3,29.86,West,260,0.0,0.0,68,0.00,,,0.00,0,Wunderground v.1.15,2013-07-08 05:50:00,
2013-07-07 23:00:00,61.6,50.9,29.86,West,260,0.0,0.0,68,0.00,,,0.00,0,Wunderground v.1.15,2013-07-08 06:00:00,
2013-07-07 23:10:00,61.3,51.0,29.86,West,260,0.0,0.0,69,0.00,,,0.00,0,Wunderground v.1.15,2013-07-08 06:10:00,
2013-07-07 23:20:00,60.9,51.0,29.86,West,260,0.0,0.0,70,0.00,,,0.00,0,Wunderground v.1.15,2013-07-08 06:20:00,
2013-07-07 23:30:00,60.5,50.7,29.86,West,259,0.0,0.0,70,0.00,,,0.00,0,Wunderground v.1.15,2013-07-08 06:30:00,
2013-07-07 23:40:00,60.2,50.8,29.87,West,259,0.0,0.0,71,0.00,,,0.00,0,Wunderground v.1.15,2013-07-08 06:40:00,
2013-07-07 23:50:00,59.9,50.8,29.87,West,259,0.0,0.0,72,0.00,,,0.00,0,Wunderground v.1.15,2013-07-08 06:50:00,